sensor_id;sensor_type;location;lat;lon;timestamp;P1;durP1;ratioP1;P2;durP2;ratioP2
50954;SDS011;36966;48.064;-0.792;2022-12-07T00:01:14;18.23;;;8.27;;
50954;SDS011;36966;48.064;-0.792;2022-12-07T00:03:42;20.58;;;9.65;;
50954;SDS011;36966;48.064;-0.792;2022-12-07T00:06:03;24.25;;;11.02;;
50954;SDS011;36966;48.064;-0.792;2022-12-07T00:08:24;24.02;;;11.00;;
50954;SDS011;36966;48.064;-0.792;2022-12-07T00:10:44;25.52;;;12.70;;
50954;SDS011;36966;48.064;-0.792;2022-12-07T00:13:03;28.35;;;12.10;;
50954;SDS011;36966;48.064;-0.792;2022-12-07T00:15:22;19.85;;;9.70;;
50954;SDS011;36966;48.064;-0.792;2022-12-07T00:17:41;20.45;;;10.00;;
50954;SDS011;36966;48.064;-0.792;2022-12-07T00:20:00;17.55;;;9.50;;
50954;SDS011;36966;48.064;-0.792;2022-12-07T00:22:19;16.83;;;9.55;;
50954;SDS011;36966;48.064;-0.792;2022-12-07T00:24:38;17.00;;;8.15;;
50954;SDS011;36966;48.064;-0.792;2022-12-07T00:26:57;13.00;;;7.80;;
50954;SDS011;36966;48.064;-0.792;2022-12-07T00:29:20;17.52;;;8.88;;
50954;SDS011;36966;48.064;-0.792;2022-12-07T00:31:40;17.77;;;8.65;;
50954;SDS011;36966;48.064;-0.792;2022-12-07T00:33:59;18.13;;;8.15;;
50954;SDS011;36966;48.064;-0.792;2022-12-07T00:36:20;19.23;;;9.80;;
50954;SDS011;36966;48.064;-0.792;2022-12-07T00:38:41;18.30;;;8.68;;
50954;SDS011;36966;48.064;-0.792;2022-12-07T00:41:01;15.48;;;8.07;;
50954;SDS011;36966;48.064;-0.792;2022-12-07T00:43:22;14.63;;;8.32;;
50954;SDS011;36966;48.064;-0.792;2022-12-07T00:45:41;16.10;;;8.23;;
50954;SDS011;36966;48.064;-0.792;2022-12-07T00:48:00;15.27;;;7.93;;
50954;SDS011;36966;48.064;-0.792;2022-12-07T00:50:19;16.08;;;7.72;;
50954;SDS011;36966;48.064;-0.792;2022-12-07T00:52:39;12.73;;;7.30;;
50954;SDS011;36966;48.064;-0.792;2022-12-07T00:54:57;15.02;;;8.20;;
50954;SDS011;36966;48.064;-0.792;2022-12-07T00:57:17;16.50;;;8.25;;
50954;SDS011;36966;48.064;-0.792;2022-12-07T00:59:36;16.17;;;8.73;;
50954;SDS011;36966;48.064;-0.792;2022-12-07T01:01:55;17.77;;;8.55;;
50954;SDS011;36966;48.064;-0.792;2022-12-07T01:04:14;18.02;;;8.75;;
50954;SDS011;36966;48.064;-0.792;2022-12-07T01:06:33;19.00;;;9.70;;
50954;SDS011;36966;48.064;-0.792;2022-12-07T01:08:53;18.70;;;8.68;;
50954;SDS011;36966;48.064;-0.792;2022-12-07T01:11:14;20.15;;;9.45;;
50954;SDS011;36966;48.064;-0.792;2022-12-07T01:13:35;19.52;;;9.35;;
50954;SDS011;36966;48.064;-0.792;2022-12-07T01:15:56;14.85;;;8.52;;
50954;SDS011;36966;48.064;-0.792;2022-12-07T01:18:18;20.83;;;9.38;;
50954;SDS011;36966;48.064;-0.792;2022-12-07T01:20:37;19.27;;;9.25;;
50954;SDS011;36966;48.064;-0.792;2022-12-07T01:22:56;17.52;;;8.65;;
50954;SDS011;36966;48.064;-0.792;2022-12-07T01:25:15;18.25;;;8.85;;
50954;SDS011;36966;48.064;-0.792;2022-12-07T01:27:35;20.90;;;9.02;;
50954;SDS011;36966;48.064;-0.792;2022-12-07T01:29:55;15.95;;;8.10;;
50954;SDS011;36966;48.064;-0.792;2022-12-07T01:32:15;17.35;;;9.13;;
50954;SDS011;36966;48.064;-0.792;2022-12-07T01:34:34;16.58;;;9.18;;
50954;SDS011;36966;48.064;-0.792;2022-12-07T01:36:53;16.23;;;8.60;;
50954;SDS011;36966;48.064;-0.792;2022-12-07T01:39:12;21.30;;;10.43;;
50954;SDS011;36966;48.064;-0.792;2022-12-07T01:41:32;16.27;;;8.93;;
50954;SDS011;36966;48.064;-0.792;2022-12-07T01:46:30;18.73;;;9.02;;
50954;SDS011;36966;48.064;-0.792;2022-12-07T01:48:49;17.95;;;9.02;;
50954;SDS011;36966;48.064;-0.792;2022-12-07T01:51:09;16.33;;;8.85;;
50954;SDS011;36966;48.064;-0.792;2022-12-07T01:53:31;15.52;;;8.32;;
50954;SDS011;36966;48.064;-0.792;2022-12-07T01:55:54;18.25;;;9.05;;
50954;SDS011;36966;48.064;-0.792;2022-12-07T01:58:16;17.73;;;8.95;;
50954;SDS011;36966;48.064;-0.792;2022-12-07T02:00:36;16.90;;;8.93;;
50954;SDS011;36966;48.064;-0.792;2022-12-07T02:02:57;15.25;;;8.93;;
50954;SDS011;36966;48.064;-0.792;2022-12-07T02:05:24;17.10;;;9.40;;
50954;SDS011;36966;48.064;-0.792;2022-12-07T02:07:44;19.70;;;9.32;;
50954;SDS011;36966;48.064;-0.792;2022-12-07T02:12:36;15.75;;;8.40;;
50954;SDS011;36966;48.064;-0.792;2022-12-07T02:14:55;15.65;;;8.98;;
50954;SDS011;36966;48.064;-0.792;2022-12-07T02:31:24;15.38;;;7.82;;
50954;SDS011;36966;48.064;-0.792;2022-12-07T02:33:49;19.42;;;9.38;;
50954;SDS011;36966;48.064;-0.792;2022-12-07T02:36:26;19.02;;;8.88;;
50954;SDS011;36966;48.064;-0.792;2022-12-07T02:38:59;18.23;;;8.25;;
50954;SDS011;36966;48.064;-0.792;2022-12-07T02:41:33;15.68;;;8.15;;
50954;SDS011;36966;48.064;-0.792;2022-12-07T02:43:59;16.80;;;8.93;;
50954;SDS011;36966;48.064;-0.792;2022-12-07T02:46:23;17.45;;;7.18;;
50954;SDS011;36966;48.064;-0.792;2022-12-07T02:48:46;15.30;;;8.25;;
50954;SDS011;36966;48.064;-0.792;2022-12-07T02:51:07;13.85;;;7.43;;
50954;SDS011;36966;48.064;-0.792;2022-12-07T02:53:45;13.18;;;6.88;;
50954;SDS011;36966;48.064;-0.792;2022-12-07T03:07:10;11.38;;;6.05;;
50954;SDS011;36966;48.064;-0.792;2022-12-07T03:09:42;11.35;;;5.30;;
50954;SDS011;36966;48.064;-0.792;2022-12-07T03:12:12;11.52;;;5.82;;
50954;SDS011;36966;48.064;-0.792;2022-12-07T03:14:37;14.38;;;5.95;;
50954;SDS011;36966;48.064;-0.792;2022-12-07T03:17:15;9.25;;;5.32;;
50954;SDS011;36966;48.064;-0.792;2022-12-07T03:22:12;9.15;;;5.25;;
50954;SDS011;36966;48.064;-0.792;2022-12-07T03:24:34;8.88;;;5.47;;
50954;SDS011;36966;48.064;-0.792;2022-12-07T03:27:10;9.43;;;5.70;;
50954;SDS011;36966;48.064;-0.792;2022-12-07T03:29:41;10.73;;;5.28;;
50954;SDS011;36966;48.064;-0.792;2022-12-07T03:32:08;10.38;;;5.57;;
50954;SDS011;36966;48.064;-0.792;2022-12-07T03:34:40;9.65;;;5.38;;
50954;SDS011;36966;48.064;-0.792;2022-12-07T03:37:09;8.60;;;5.15;;
50954;SDS011;36966;48.064;-0.792;2022-12-07T03:39:41;10.82;;;6.15;;
50954;SDS011;36966;48.064;-0.792;2022-12-07T03:42:08;10.52;;;5.88;;
50954;SDS011;36966;48.064;-0.792;2022-12-07T03:44:29;8.15;;;4.65;;
50954;SDS011;36966;48.064;-0.792;2022-12-07T03:46:55;10.50;;;5.60;;
50954;SDS011;36966;48.064;-0.792;2022-12-07T03:49:31;9.77;;;5.15;;
50954;SDS011;36966;48.064;-0.792;2022-12-07T03:57:30;10.57;;;4.85;;
50954;SDS011;36966;48.064;-0.792;2022-12-07T03:59:53;11.50;;;4.95;;
50954;SDS011;36966;48.064;-0.792;2022-12-07T04:02:14;8.35;;;5.03;;
50954;SDS011;36966;48.064;-0.792;2022-12-07T04:04:34;10.63;;;4.60;;
50954;SDS011;36966;48.064;-0.792;2022-12-07T04:06:53;10.55;;;5.38;;
50954;SDS011;36966;48.064;-0.792;2022-12-07T04:09:12;10.20;;;4.32;;
50954;SDS011;36966;48.064;-0.792;2022-12-07T04:11:32;10.48;;;5.43;;
50954;SDS011;36966;48.064;-0.792;2022-12-07T04:13:51;7.80;;;4.32;;
50954;SDS011;36966;48.064;-0.792;2022-12-07T04:16:30;7.72;;;4.32;;
50954;SDS011;36966;48.064;-0.792;2022-12-07T04:18:49;11.93;;;5.20;;
50954;SDS011;36966;48.064;-0.792;2022-12-07T04:21:08;8.77;;;4.40;;
50954;SDS011;36966;48.064;-0.792;2022-12-07T04:23:27;9.05;;;4.50;;
50954;SDS011;36966;48.064;-0.792;2022-12-07T04:25:47;6.93;;;4.25;;
50954;SDS011;36966;48.064;-0.792;2022-12-07T04:28:07;10.90;;;5.25;;
50954;SDS011;36966;48.064;-0.792;2022-12-07T04:30:26;8.23;;;5.05;;
50954;SDS011;36966;48.064;-0.792;2022-12-07T04:32:45;8.63;;;5.00;;
50954;SDS011;36966;48.064;-0.792;2022-12-07T04:35:04;8.88;;;4.68;;
50954;SDS011;36966;48.064;-0.792;2022-12-07T04:37:24;10.48;;;5.38;;
50954;SDS011;36966;48.064;-0.792;2022-12-07T04:39:43;9.63;;;4.80;;
50954;SDS011;36966;48.064;-0.792;2022-12-07T04:42:05;8.50;;;4.65;;
50954;SDS011;36966;48.064;-0.792;2022-12-07T04:44:25;9.50;;;5.30;;
50954;SDS011;36966;48.064;-0.792;2022-12-07T04:46:46;7.60;;;4.28;;
50954;SDS011;36966;48.064;-0.792;2022-12-07T04:49:05;8.93;;;4.65;;
50954;SDS011;36966;48.064;-0.792;2022-12-07T04:51:25;8.52;;;4.18;;
50954;SDS011;36966;48.064;-0.792;2022-12-07T04:53:46;8.65;;;4.47;;
50954;SDS011;36966;48.064;-0.792;2022-12-07T04:56:06;9.48;;;4.57;;
50954;SDS011;36966;48.064;-0.792;2022-12-07T04:58:25;8.20;;;4.63;;
50954;SDS011;36966;48.064;-0.792;2022-12-07T05:00:44;8.32;;;4.15;;
50954;SDS011;36966;48.064;-0.792;2022-12-07T05:03:03;8.05;;;4.50;;
50954;SDS011;36966;48.064;-0.792;2022-12-07T05:05:22;9.15;;;4.95;;
50954;SDS011;36966;48.064;-0.792;2022-12-07T05:07:42;9.18;;;5.03;;
50954;SDS011;36966;48.064;-0.792;2022-12-07T05:10:01;8.70;;;4.80;;
50954;SDS011;36966;48.064;-0.792;2022-12-07T05:12:21;9.00;;;5.07;;
50954;SDS011;36966;48.064;-0.792;2022-12-07T05:14:40;9.55;;;4.60;;
50954;SDS011;36966;48.064;-0.792;2022-12-07T05:16:59;7.13;;;4.05;;
50954;SDS011;36966;48.064;-0.792;2022-12-07T05:19:19;8.57;;;4.55;;
50954;SDS011;36966;48.064;-0.792;2022-12-07T05:21:39;8.07;;;4.57;;
50954;SDS011;36966;48.064;-0.792;2022-12-07T05:23:59;10.95;;;4.78;;
50954;SDS011;36966;48.064;-0.792;2022-12-07T05:26:18;10.55;;;4.55;;
50954;SDS011;36966;48.064;-0.792;2022-12-07T05:28:37;7.45;;;4.65;;
50954;SDS011;36966;48.064;-0.792;2022-12-07T05:30:56;9.00;;;3.75;;
50954;SDS011;36966;48.064;-0.792;2022-12-07T05:33:15;7.85;;;4.10;;
50954;SDS011;36966;48.064;-0.792;2022-12-07T05:35:35;6.75;;;3.95;;
50954;SDS011;36966;48.064;-0.792;2022-12-07T05:37:56;6.78;;;3.95;;
50954;SDS011;36966;48.064;-0.792;2022-12-07T05:40:16;8.50;;;4.25;;
50954;SDS011;36966;48.064;-0.792;2022-12-07T05:42:37;7.82;;;4.53;;
50954;SDS011;36966;48.064;-0.792;2022-12-07T05:44:57;9.25;;;4.25;;
50954;SDS011;36966;48.064;-0.792;2022-12-07T05:47:16;8.85;;;4.97;;
50954;SDS011;36966;48.064;-0.792;2022-12-07T05:49:35;7.10;;;4.03;;
50954;SDS011;36966;48.064;-0.792;2022-12-07T05:51:55;7.90;;;4.25;;
50954;SDS011;36966;48.064;-0.792;2022-12-07T05:54:15;10.80;;;6.10;;
50954;SDS011;36966;48.064;-0.792;2022-12-07T05:56:34;9.98;;;4.97;;
50954;SDS011;36966;48.064;-0.792;2022-12-07T05:58:53;9.15;;;4.68;;
50954;SDS011;36966;48.064;-0.792;2022-12-07T06:01:32;6.35;;;3.75;;
50954;SDS011;36966;48.064;-0.792;2022-12-07T06:03:51;9.77;;;4.05;;
50954;SDS011;36966;48.064;-0.792;2022-12-07T06:06:10;10.13;;;3.22;;
50954;SDS011;36966;48.064;-0.792;2022-12-07T06:08:29;7.53;;;4.55;;
50954;SDS011;36966;48.064;-0.792;2022-12-07T06:10:48;9.70;;;5.00;;
50954;SDS011;36966;48.064;-0.792;2022-12-07T06:13:30;7.43;;;3.83;;
50954;SDS011;36966;48.064;-0.792;2022-12-07T06:15:50;8.35;;;4.38;;
50954;SDS011;36966;48.064;-0.792;2022-12-07T06:18:09;5.63;;;3.55;;
50954;SDS011;36966;48.064;-0.792;2022-12-07T06:20:28;7.75;;;4.15;;
50954;SDS011;36966;48.064;-0.792;2022-12-07T06:22:47;8.20;;;4.10;;
50954;SDS011;36966;48.064;-0.792;2022-12-07T06:25:06;5.65;;;3.95;;
50954;SDS011;36966;48.064;-0.792;2022-12-07T06:27:26;7.43;;;3.72;;
50954;SDS011;36966;48.064;-0.792;2022-12-07T06:29:45;9.43;;;5.18;;
50954;SDS011;36966;48.064;-0.792;2022-12-07T06:32:04;8.23;;;3.58;;
50954;SDS011;36966;48.064;-0.792;2022-12-07T06:34:24;6.30;;;4.03;;
50954;SDS011;36966;48.064;-0.792;2022-12-07T06:36:45;6.05;;;3.58;;
50954;SDS011;36966;48.064;-0.792;2022-12-07T06:39:09;6.15;;;3.92;;
50954;SDS011;36966;48.064;-0.792;2022-12-07T06:41:29;7.38;;;3.70;;
50954;SDS011;36966;48.064;-0.792;2022-12-07T06:43:48;6.95;;;3.92;;
50954;SDS011;36966;48.064;-0.792;2022-12-07T06:46:08;6.93;;;3.90;;
50954;SDS011;36966;48.064;-0.792;2022-12-07T06:48:27;8.20;;;4.90;;
50954;SDS011;36966;48.064;-0.792;2022-12-07T06:50:46;5.13;;;3.53;;
50954;SDS011;36966;48.064;-0.792;2022-12-07T06:53:07;8.20;;;4.47;;
50954;SDS011;36966;48.064;-0.792;2022-12-07T06:55:28;5.57;;;3.83;;
50954;SDS011;36966;48.064;-0.792;2022-12-07T06:57:47;7.30;;;4.10;;
50954;SDS011;36966;48.064;-0.792;2022-12-07T07:00:06;6.05;;;3.35;;
50954;SDS011;36966;48.064;-0.792;2022-12-07T07:02:26;5.20;;;3.25;;
50954;SDS011;36966;48.064;-0.792;2022-12-07T07:04:46;5.57;;;3.63;;
50954;SDS011;36966;48.064;-0.792;2022-12-07T07:07:05;5.75;;;3.05;;
50954;SDS011;36966;48.064;-0.792;2022-12-07T07:09:24;6.18;;;3.65;;
50954;SDS011;36966;48.064;-0.792;2022-12-07T07:11:43;5.72;;;3.33;;
50954;SDS011;36966;48.064;-0.792;2022-12-07T07:14:02;5.90;;;3.45;;
50954;SDS011;36966;48.064;-0.792;2022-12-07T07:16:22;6.13;;;3.88;;
50954;SDS011;36966;48.064;-0.792;2022-12-07T07:18:41;7.18;;;3.63;;
50954;SDS011;36966;48.064;-0.792;2022-12-07T07:21:00;6.10;;;3.50;;
50954;SDS011;36966;48.064;-0.792;2022-12-07T07:23:20;6.15;;;3.60;;
50954;SDS011;36966;48.064;-0.792;2022-12-07T07:25:40;6.25;;;3.67;;
50954;SDS011;36966;48.064;-0.792;2022-12-07T07:27:59;5.82;;;3.90;;
50954;SDS011;36966;48.064;-0.792;2022-12-07T07:30:19;4.95;;;3.63;;
50954;SDS011;36966;48.064;-0.792;2022-12-07T07:32:38;6.82;;;4.20;;
50954;SDS011;36966;48.064;-0.792;2022-12-07T07:34:57;5.93;;;3.72;;
50954;SDS011;36966;48.064;-0.792;2022-12-07T07:37:16;5.28;;;3.35;;
50954;SDS011;36966;48.064;-0.792;2022-12-07T07:39:35;5.35;;;2.95;;
50954;SDS011;36966;48.064;-0.792;2022-12-07T07:41:55;4.90;;;3.03;;
50954;SDS011;36966;48.064;-0.792;2022-12-07T07:44:14;6.15;;;3.47;;
50954;SDS011;36966;48.064;-0.792;2022-12-07T07:46:33;4.88;;;2.80;;
50954;SDS011;36966;48.064;-0.792;2022-12-07T07:48:52;6.85;;;4.22;;
50954;SDS011;36966;48.064;-0.792;2022-12-07T07:51:11;5.72;;;3.50;;
50954;SDS011;36966;48.064;-0.792;2022-12-07T07:53:30;5.07;;;3.05;;
50954;SDS011;36966;48.064;-0.792;2022-12-07T07:55:51;8.25;;;3.75;;
50954;SDS011;36966;48.064;-0.792;2022-12-07T07:58:11;8.57;;;3.42;;
50954;SDS011;36966;48.064;-0.792;2022-12-07T08:00:30;8.25;;;4.30;;
50954;SDS011;36966;48.064;-0.792;2022-12-07T08:02:50;7.97;;;3.92;;
50954;SDS011;36966;48.064;-0.792;2022-12-07T08:05:10;6.63;;;3.75;;
50954;SDS011;36966;48.064;-0.792;2022-12-07T08:07:30;8.02;;;4.88;;
50954;SDS011;36966;48.064;-0.792;2022-12-07T08:09:49;6.68;;;4.00;;
50954;SDS011;36966;48.064;-0.792;2022-12-07T08:12:08;6.53;;;3.85;;
50954;SDS011;36966;48.064;-0.792;2022-12-07T08:14:27;4.97;;;3.55;;
50954;SDS011;36966;48.064;-0.792;2022-12-07T08:16:47;6.38;;;3.42;;
50954;SDS011;36966;48.064;-0.792;2022-12-07T08:19:06;4.85;;;3.35;;
50954;SDS011;36966;48.064;-0.792;2022-12-07T08:21:26;7.25;;;3.80;;
50954;SDS011;36966;48.064;-0.792;2022-12-07T08:23:45;4.95;;;3.08;;
50954;SDS011;36966;48.064;-0.792;2022-12-07T08:26:05;6.75;;;4.00;;
50954;SDS011;36966;48.064;-0.792;2022-12-07T08:28:27;6.13;;;3.47;;
50954;SDS011;36966;48.064;-0.792;2022-12-07T08:30:46;5.30;;;3.55;;
50954;SDS011;36966;48.064;-0.792;2022-12-07T08:33:05;7.18;;;4.43;;
50954;SDS011;36966;48.064;-0.792;2022-12-07T08:35:25;8.18;;;4.68;;
50954;SDS011;36966;48.064;-0.792;2022-12-07T08:37:44;6.47;;;3.83;;
50954;SDS011;36966;48.064;-0.792;2022-12-07T08:40:05;4.68;;;2.88;;
50954;SDS011;36966;48.064;-0.792;2022-12-07T08:42:25;8.95;;;4.70;;
50954;SDS011;36966;48.064;-0.792;2022-12-07T08:44:46;4.95;;;3.05;;
50954;SDS011;36966;48.064;-0.792;2022-12-07T08:47:05;9.93;;;5.90;;
50954;SDS011;36966;48.064;-0.792;2022-12-07T08:49:47;4.55;;;2.80;;
50954;SDS011;36966;48.064;-0.792;2022-12-07T08:52:08;5.60;;;3.45;;
50954;SDS011;36966;48.064;-0.792;2022-12-07T08:54:28;6.28;;;3.40;;
50954;SDS011;36966;48.064;-0.792;2022-12-07T08:56:47;5.68;;;3.15;;
50954;SDS011;36966;48.064;-0.792;2022-12-07T08:59:10;5.95;;;3.38;;
50954;SDS011;36966;48.064;-0.792;2022-12-07T09:01:32;5.25;;;3.20;;
50954;SDS011;36966;48.064;-0.792;2022-12-07T09:03:52;5.47;;;3.10;;
50954;SDS011;36966;48.064;-0.792;2022-12-07T09:06:11;4.28;;;2.72;;
50954;SDS011;36966;48.064;-0.792;2022-12-07T09:08:32;5.45;;;3.33;;
50954;SDS011;36966;48.064;-0.792;2022-12-07T09:10:54;7.40;;;3.70;;
50954;SDS011;36966;48.064;-0.792;2022-12-07T09:13:13;4.75;;;3.53;;
50954;SDS011;36966;48.064;-0.792;2022-12-07T09:15:33;6.25;;;3.60;;
50954;SDS011;36966;48.064;-0.792;2022-12-07T09:17:52;5.60;;;3.33;;
50954;SDS011;36966;48.064;-0.792;2022-12-07T09:20:12;4.38;;;3.08;;
50954;SDS011;36966;48.064;-0.792;2022-12-07T09:22:31;6.43;;;3.22;;
50954;SDS011;36966;48.064;-0.792;2022-12-07T09:24:51;5.95;;;3.60;;
50954;SDS011;36966;48.064;-0.792;2022-12-07T09:27:10;5.32;;;3.42;;
50954;SDS011;36966;48.064;-0.792;2022-12-07T09:29:30;6.00;;;3.20;;
50954;SDS011;36966;48.064;-0.792;2022-12-07T09:31:49;7.22;;;3.80;;
50954;SDS011;36966;48.064;-0.792;2022-12-07T09:34:09;8.73;;;3.63;;
50954;SDS011;36966;48.064;-0.792;2022-12-07T09:36:28;4.88;;;3.05;;
50954;SDS011;36966;48.064;-0.792;2022-12-07T09:38:47;7.78;;;3.67;;
50954;SDS011;36966;48.064;-0.792;2022-12-07T09:41:06;6.65;;;3.95;;
50954;SDS011;36966;48.064;-0.792;2022-12-07T09:43:26;9.35;;;3.42;;
50954;SDS011;36966;48.064;-0.792;2022-12-07T09:45:46;6.00;;;3.47;;
50954;SDS011;36966;48.064;-0.792;2022-12-07T09:48:17;5.72;;;3.63;;
50954;SDS011;36966;48.064;-0.792;2022-12-07T09:50:52;5.78;;;3.85;;
50954;SDS011;36966;48.064;-0.792;2022-12-07T09:53:16;6.50;;;3.67;;
50954;SDS011;36966;48.064;-0.792;2022-12-07T09:55:55;4.93;;;3.42;;
50954;SDS011;36966;48.064;-0.792;2022-12-07T09:58:18;6.50;;;3.80;;
50954;SDS011;36966;48.064;-0.792;2022-12-07T10:00:46;7.13;;;4.38;;
50954;SDS011;36966;48.064;-0.792;2022-12-07T10:03:05;6.60;;;2.78;;
50954;SDS011;36966;48.064;-0.792;2022-12-07T10:07:48;4.75;;;2.97;;
50954;SDS011;36966;48.064;-0.792;2022-12-07T10:10:16;5.72;;;3.50;;
50954;SDS011;36966;48.064;-0.792;2022-12-07T10:15:42;5.22;;;3.33;;
50954;SDS011;36966;48.064;-0.792;2022-12-07T10:21:16;4.32;;;2.58;;
50954;SDS011;36966;48.064;-0.792;2022-12-07T10:23:40;9.25;;;4.10;;
50954;SDS011;36966;48.064;-0.792;2022-12-07T10:26:21;5.05;;;3.47;;
50954;SDS011;36966;48.064;-0.792;2022-12-07T10:28:54;5.90;;;3.80;;
50954;SDS011;36966;48.064;-0.792;2022-12-07T10:31:18;7.38;;;4.35;;
50954;SDS011;36966;48.064;-0.792;2022-12-07T10:41:55;12.85;;;4.88;;
50954;SDS011;36966;48.064;-0.792;2022-12-07T10:44:20;7.05;;;3.70;;
50954;SDS011;36966;48.064;-0.792;2022-12-07T10:54:38;6.95;;;4.22;;
50954;SDS011;36966;48.064;-0.792;2022-12-07T10:59:52;6.85;;;4.30;;
50954;SDS011;36966;48.064;-0.792;2022-12-07T11:10:50;7.20;;;4.38;;
50954;SDS011;36966;48.064;-0.792;2022-12-07T11:18:36;8.27;;;3.92;;
50954;SDS011;36966;48.064;-0.792;2022-12-07T11:31:36;11.77;;;4.85;;
50954;SDS011;36966;48.064;-0.792;2022-12-07T11:37:08;7.05;;;4.18;;
50954;SDS011;36966;48.064;-0.792;2022-12-07T11:39:35;7.68;;;4.22;;
50954;SDS011;36966;48.064;-0.792;2022-12-07T11:42:02;11.98;;;5.10;;
50954;SDS011;36966;48.064;-0.792;2022-12-07T11:44:33;9.82;;;5.00;;
50954;SDS011;36966;48.064;-0.792;2022-12-07T11:50:14;8.38;;;5.03;;
50954;SDS011;36966;48.064;-0.792;2022-12-07T11:52:58;11.25;;;5.47;;
50954;SDS011;36966;48.064;-0.792;2022-12-07T11:55:29;7.45;;;4.75;;
50954;SDS011;36966;48.064;-0.792;2022-12-07T11:58:12;10.80;;;5.47;;
50954;SDS011;36966;48.064;-0.792;2022-12-07T12:00:32;9.10;;;5.35;;
50954;SDS011;36966;48.064;-0.792;2022-12-07T12:03:03;9.07;;;5.05;;
50954;SDS011;36966;48.064;-0.792;2022-12-07T12:05:33;7.63;;;4.43;;
50954;SDS011;36966;48.064;-0.792;2022-12-07T12:07:58;8.48;;;4.70;;
50954;SDS011;36966;48.064;-0.792;2022-12-07T12:10:36;7.35;;;4.68;;
50954;SDS011;36966;48.064;-0.792;2022-12-07T12:15:41;10.60;;;3.90;;
50954;SDS011;36966;48.064;-0.792;2022-12-07T12:18:12;5.60;;;3.53;;
50954;SDS011;36966;48.064;-0.792;2022-12-07T12:21:22;7.50;;;3.65;;
50954;SDS011;36966;48.064;-0.792;2022-12-07T12:23:20;5.50;;;3.50;;
50954;SDS011;36966;48.064;-0.792;2022-12-07T12:25:44;8.27;;;4.82;;
50954;SDS011;36966;48.064;-0.792;2022-12-07T12:28:15;8.27;;;4.90;;
50954;SDS011;36966;48.064;-0.792;2022-12-07T12:30:39;7.75;;;4.40;;
50954;SDS011;36966;48.064;-0.792;2022-12-07T12:35:40;6.38;;;3.97;;
50954;SDS011;36966;48.064;-0.792;2022-12-07T12:41:06;12.02;;;4.68;;
50954;SDS011;36966;48.064;-0.792;2022-12-07T12:46:45;11.68;;;4.88;;
50954;SDS011;36966;48.064;-0.792;2022-12-07T12:51:41;13.80;;;6.13;;
50954;SDS011;36966;48.064;-0.792;2022-12-07T12:54:12;10.63;;;5.22;;
50954;SDS011;36966;48.064;-0.792;2022-12-07T12:59:41;7.30;;;4.60;;
50954;SDS011;36966;48.064;-0.792;2022-12-07T13:04:51;9.02;;;4.38;;
50954;SDS011;36966;48.064;-0.792;2022-12-07T13:12:42;8.65;;;4.10;;
50954;SDS011;36966;48.064;-0.792;2022-12-07T13:15:01;5.82;;;3.67;;
50954;SDS011;36966;48.064;-0.792;2022-12-07T13:19:54;5.07;;;3.22;;
50954;SDS011;36966;48.064;-0.792;2022-12-07T13:25:18;10.55;;;4.45;;
50954;SDS011;36966;48.064;-0.792;2022-12-07T13:27:41;9.80;;;4.07;;
50954;SDS011;36966;48.064;-0.792;2022-12-07T13:30:18;9.23;;;4.63;;
50954;SDS011;36966;48.064;-0.792;2022-12-07T13:32:39;8.60;;;4.82;;
50954;SDS011;36966;48.064;-0.792;2022-12-07T13:34:58;7.72;;;3.90;;
50954;SDS011;36966;48.064;-0.792;2022-12-07T13:39:44;6.80;;;3.38;;
50954;SDS011;36966;48.064;-0.792;2022-12-07T13:42:14;7.35;;;4.28;;
50954;SDS011;36966;48.064;-0.792;2022-12-07T13:44:47;8.10;;;4.05;;
50954;SDS011;36966;48.064;-0.792;2022-12-07T13:47:12;8.13;;;4.57;;
50954;SDS011;36966;48.064;-0.792;2022-12-07T13:49:38;8.65;;;4.57;;
50954;SDS011;36966;48.064;-0.792;2022-12-07T13:52:13;7.03;;;4.20;;
50954;SDS011;36966;48.064;-0.792;2022-12-07T13:57:12;9.10;;;4.80;;
50954;SDS011;36966;48.064;-0.792;2022-12-07T13:59:31;8.38;;;3.80;;
50954;SDS011;36966;48.064;-0.792;2022-12-07T14:01:52;7.80;;;4.00;;
50954;SDS011;36966;48.064;-0.792;2022-12-07T14:04:19;8.10;;;4.13;;
50954;SDS011;36966;48.064;-0.792;2022-12-07T14:06:50;8.27;;;5.07;;
50954;SDS011;36966;48.064;-0.792;2022-12-07T14:09:17;6.88;;;3.90;;
50954;SDS011;36966;48.064;-0.792;2022-12-07T14:11:41;9.15;;;5.20;;
50954;SDS011;36966;48.064;-0.792;2022-12-07T14:14:01;5.95;;;3.42;;
50954;SDS011;36966;48.064;-0.792;2022-12-07T14:18:54;6.05;;;3.72;;
50954;SDS011;36966;48.064;-0.792;2022-12-07T14:21:15;11.57;;;4.50;;
50954;SDS011;36966;48.064;-0.792;2022-12-07T14:23:38;8.13;;;2.92;;
50954;SDS011;36966;48.064;-0.792;2022-12-07T14:26:06;5.97;;;3.55;;
50954;SDS011;36966;48.064;-0.792;2022-12-07T14:28:34;8.15;;;3.10;;
50954;SDS011;36966;48.064;-0.792;2022-12-07T14:30:55;7.13;;;4.47;;
50954;SDS011;36966;48.064;-0.792;2022-12-07T14:33:14;9.00;;;4.63;;
50954;SDS011;36966;48.064;-0.792;2022-12-07T14:35:33;8.65;;;4.80;;
50954;SDS011;36966;48.064;-0.792;2022-12-07T14:37:53;8.75;;;4.50;;
50954;SDS011;36966;48.064;-0.792;2022-12-07T14:40:13;6.88;;;3.85;;
50954;SDS011;36966;48.064;-0.792;2022-12-07T14:42:35;9.05;;;4.70;;
50954;SDS011;36966;48.064;-0.792;2022-12-07T14:44:55;7.57;;;4.18;;
50954;SDS011;36966;48.064;-0.792;2022-12-07T14:47:16;8.98;;;5.50;;
50954;SDS011;36966;48.064;-0.792;2022-12-07T14:49:35;10.13;;;5.05;;
50954;SDS011;36966;48.064;-0.792;2022-12-07T14:51:54;8.70;;;4.47;;
50954;SDS011;36966;48.064;-0.792;2022-12-07T14:54:18;11.90;;;5.65;;
50954;SDS011;36966;48.064;-0.792;2022-12-07T14:56:38;8.48;;;4.35;;
50954;SDS011;36966;48.064;-0.792;2022-12-07T14:58:57;7.70;;;4.32;;
50954;SDS011;36966;48.064;-0.792;2022-12-07T15:01:17;10.95;;;5.32;;
50954;SDS011;36966;48.064;-0.792;2022-12-07T15:03:36;9.85;;;5.53;;
50954;SDS011;36966;48.064;-0.792;2022-12-07T15:05:56;7.85;;;4.57;;
50954;SDS011;36966;48.064;-0.792;2022-12-07T15:08:16;8.40;;;5.20;;
50954;SDS011;36966;48.064;-0.792;2022-12-07T15:10:36;10.32;;;5.65;;
50954;SDS011;36966;48.064;-0.792;2022-12-07T15:12:57;9.10;;;4.60;;
50954;SDS011;36966;48.064;-0.792;2022-12-07T15:15:38;9.80;;;6.00;;
50954;SDS011;36966;48.064;-0.792;2022-12-07T15:17:57;9.48;;;5.00;;
50954;SDS011;36966;48.064;-0.792;2022-12-07T15:20:16;11.52;;;5.28;;
50954;SDS011;36966;48.064;-0.792;2022-12-07T15:22:36;12.68;;;6.22;;
50954;SDS011;36966;48.064;-0.792;2022-12-07T15:24:55;8.38;;;5.57;;
50954;SDS011;36966;48.064;-0.792;2022-12-07T15:27:14;10.88;;;5.28;;
50954;SDS011;36966;48.064;-0.792;2022-12-07T15:29:33;13.48;;;6.28;;
50954;SDS011;36966;48.064;-0.792;2022-12-07T15:31:52;9.38;;;5.70;;
50954;SDS011;36966;48.064;-0.792;2022-12-07T15:34:12;9.35;;;5.57;;
50954;SDS011;36966;48.064;-0.792;2022-12-07T15:36:32;10.00;;;5.85;;
50954;SDS011;36966;48.064;-0.792;2022-12-07T15:38:54;15.82;;;6.07;;
50954;SDS011;36966;48.064;-0.792;2022-12-07T15:41:14;11.15;;;6.20;;
50954;SDS011;36966;48.064;-0.792;2022-12-07T15:43:33;7.93;;;5.13;;
50954;SDS011;36966;48.064;-0.792;2022-12-07T15:46:13;8.88;;;5.20;;
50954;SDS011;36966;48.064;-0.792;2022-12-07T15:48:33;11.18;;;5.43;;
50954;SDS011;36966;48.064;-0.792;2022-12-07T15:50:52;8.00;;;5.28;;
50954;SDS011;36966;48.064;-0.792;2022-12-07T15:53:11;7.88;;;5.82;;
50954;SDS011;36966;48.064;-0.792;2022-12-07T15:55:30;8.52;;;5.35;;
50954;SDS011;36966;48.064;-0.792;2022-12-07T15:57:49;10.27;;;5.63;;
50954;SDS011;36966;48.064;-0.792;2022-12-07T16:00:09;8.98;;;5.20;;
50954;SDS011;36966;48.064;-0.792;2022-12-07T16:02:29;11.05;;;5.88;;
50954;SDS011;36966;48.064;-0.792;2022-12-07T16:04:49;13.05;;;6.55;;
50954;SDS011;36966;48.064;-0.792;2022-12-07T16:07:09;16.48;;;7.47;;
50954;SDS011;36966;48.064;-0.792;2022-12-07T16:09:30;15.90;;;7.72;;
50954;SDS011;36966;48.064;-0.792;2022-12-07T16:11:49;15.60;;;7.45;;
50954;SDS011;36966;48.064;-0.792;2022-12-07T16:14:09;15.23;;;7.15;;
50954;SDS011;36966;48.064;-0.792;2022-12-07T16:16:28;12.80;;;7.85;;